sensor_id;sensor_type;location;lat;lon;timestamp;temperature;humidity
51500;DHT22;39101;53.478;6.158;2023-03-14T00:02:21;9.70;99.90
51500;DHT22;39101;53.478;6.158;2023-03-14T00:04:47;9.70;99.90
51500;DHT22;39101;53.478;6.158;2023-03-14T00:07:13;9.60;99.90
51500;DHT22;39101;53.478;6.158;2023-03-14T00:09:39;9.70;99.90
51500;DHT22;39101;53.478;6.158;2023-03-14T00:12:05;9.70;99.90
51500;DHT22;39101;53.478;6.158;2023-03-14T00:14:32;9.60;99.90
51500;DHT22;39101;53.478;6.158;2023-03-14T00:16:58;9.60;99.90
51500;DHT22;39101;53.478;6.158;2023-03-14T00:19:23;9.50;99.90
51500;DHT22;39101;53.478;6.158;2023-03-14T00:21:49;9.50;99.90
51500;DHT22;39101;53.478;6.158;2023-03-14T00:24:15;9.60;99.90
51500;DHT22;39101;53.478;6.158;2023-03-14T00:26:40;9.40;99.90
51500;DHT22;39101;53.478;6.158;2023-03-14T00:29:06;9.40;99.90
51500;DHT22;39101;53.478;6.158;2023-03-14T00:31:32;9.40;99.90
51500;DHT22;39101;53.478;6.158;2023-03-14T00:33:57;9.40;99.90
51500;DHT22;39101;53.478;6.158;2023-03-14T00:36:23;9.60;99.90
51500;DHT22;39101;53.478;6.158;2023-03-14T00:38:51;9.50;99.90
51500;DHT22;39101;53.478;6.158;2023-03-14T00:41:22;9.60;99.90
51500;DHT22;39101;53.478;6.158;2023-03-14T00:43:51;9.60;99.90
51500;DHT22;39101;53.478;6.158;2023-03-14T00:46:18;9.60;99.90
51500;DHT22;39101;53.478;6.158;2023-03-14T00:48:45;9.50;99.90
51500;DHT22;39101;53.478;6.158;2023-03-14T00:51:11;9.50;99.90
51500;DHT22;39101;53.478;6.158;2023-03-14T00:53:39;9.40;99.90
51500;DHT22;39101;53.478;6.158;2023-03-14T00:56:08;9.50;99.90
51500;DHT22;39101;53.478;6.158;2023-03-14T00:58:34;9.40;99.90
51500;DHT22;39101;53.478;6.158;2023-03-14T01:01:08;9.40;99.90
51500;DHT22;39101;53.478;6.158;2023-03-14T01:03:34;9.40;99.90
51500;DHT22;39101;53.478;6.158;2023-03-14T01:06:27;9.40;99.90
51500;DHT22;39101;53.478;6.158;2023-03-14T01:08:54;9.30;99.90
51500;DHT22;39101;53.478;6.158;2023-03-14T01:11:29;9.20;99.90
51500;DHT22;39101;53.478;6.158;2023-03-14T01:13:56;9.30;99.90
51500;DHT22;39101;53.478;6.158;2023-03-14T01:16:23;9.30;99.90
51500;DHT22;39101;53.478;6.158;2023-03-14T01:18:49;9.30;99.90
51500;DHT22;39101;53.478;6.158;2023-03-14T01:21:22;9.40;99.90
51500;DHT22;39101;53.478;6.158;2023-03-14T01:23:48;9.20;99.90
51500;DHT22;39101;53.478;6.158;2023-03-14T01:26:17;9.20;99.90
51500;DHT22;39101;53.478;6.158;2023-03-14T01:28:45;9.40;99.90
51500;DHT22;39101;53.478;6.158;2023-03-14T01:31:11;9.30;99.90
51500;DHT22;39101;53.478;6.158;2023-03-14T01:33:37;9.30;99.90
51500;DHT22;39101;53.478;6.158;2023-03-14T01:36:04;9.30;99.90
51500;DHT22;39101;53.478;6.158;2023-03-14T01:38:31;9.40;99.90
51500;DHT22;39101;53.478;6.158;2023-03-14T01:40:58;9.40;99.90
51500;DHT22;39101;53.478;6.158;2023-03-14T01:43:24;9.40;99.90
51500;DHT22;39101;53.478;6.158;2023-03-14T01:51:42;9.40;99.90
51500;DHT22;39101;53.478;6.158;2023-03-14T01:56:40;9.40;99.90
51500;DHT22;39101;53.478;6.158;2023-03-14T01:59:08;9.40;99.90
51500;DHT22;39101;53.478;6.158;2023-03-14T02:01:36;9.40;99.90
51500;DHT22;39101;53.478;6.158;2023-03-14T02:04:03;9.40;99.90
51500;DHT22;39101;53.478;6.158;2023-03-14T02:06:38;9.40;99.90
51500;DHT22;39101;53.478;6.158;2023-03-14T02:09:05;9.30;99.90
51500;DHT22;39101;53.478;6.158;2023-03-14T02:11:31;9.30;99.90
51500;DHT22;39101;53.478;6.158;2023-03-14T02:13:58;9.40;99.90
51500;DHT22;39101;53.478;6.158;2023-03-14T02:16:24;9.30;99.90
51500;DHT22;39101;53.478;6.158;2023-03-14T02:18:50;9.30;99.90
51500;DHT22;39101;53.478;6.158;2023-03-14T02:27:02;9.20;99.90
51500;DHT22;39101;53.478;6.158;2023-03-14T02:29:29;9.20;99.90
51500;DHT22;39101;53.478;6.158;2023-03-14T02:31:56;9.20;99.90
51500;DHT22;39101;53.478;6.158;2023-03-14T02:34:21;9.10;99.90
51500;DHT22;39101;53.478;6.158;2023-03-14T02:36:47;9.10;99.90
51500;DHT22;39101;53.478;6.158;2023-03-14T02:39:24;9.10;99.90
51500;DHT22;39101;53.478;6.158;2023-03-14T02:42:06;9.10;99.90
51500;DHT22;39101;53.478;6.158;2023-03-14T02:44:32;9.10;99.90
51500;DHT22;39101;53.478;6.158;2023-03-14T02:46:57;9.00;99.90
51500;DHT22;39101;53.478;6.158;2023-03-14T02:49:23;9.10;99.90
51500;DHT22;39101;53.478;6.158;2023-03-14T02:51:50;9.10;99.90
51500;DHT22;39101;53.478;6.158;2023-03-14T02:54:17;9.00;99.90
51500;DHT22;39101;53.478;6.158;2023-03-14T02:56:45;9.00;99.90
51500;DHT22;39101;53.478;6.158;2023-03-14T02:59:10;8.80;99.90
51500;DHT22;39101;53.478;6.158;2023-03-14T03:01:36;8.90;99.90
51500;DHT22;39101;53.478;6.158;2023-03-14T03:04:02;8.90;99.90
51500;DHT22;39101;53.478;6.158;2023-03-14T03:06:27;9.00;99.90
51500;DHT22;39101;53.478;6.158;2023-03-14T03:08:53;8.80;99.90
51500;DHT22;39101;53.478;6.158;2023-03-14T03:11:18;8.80;99.90
51500;DHT22;39101;53.478;6.158;2023-03-14T03:13:44;8.90;99.90
51500;DHT22;39101;53.478;6.158;2023-03-14T03:16:10;8.80;99.90
51500;DHT22;39101;53.478;6.158;2023-03-14T03:18:35;8.70;99.90
51500;DHT22;39101;53.478;6.158;2023-03-14T03:21:03;8.70;99.90
51500;DHT22;39101;53.478;6.158;2023-03-14T03:23:29;8.60;99.90
51500;DHT22;39101;53.478;6.158;2023-03-14T03:25:55;8.60;99.90
51500;DHT22;39101;53.478;6.158;2023-03-14T03:28:21;8.60;99.90
51500;DHT22;39101;53.478;6.158;2023-03-14T03:30:46;8.60;99.90
51500;DHT22;39101;53.478;6.158;2023-03-14T03:33:12;8.70;99.90
51500;DHT22;39101;53.478;6.158;2023-03-14T03:35:49;8.60;99.90
51500;DHT22;39101;53.478;6.158;2023-03-14T03:38:16;8.60;99.90
51500;DHT22;39101;53.478;6.158;2023-03-14T03:40:42;8.60;99.90
51500;DHT22;39101;53.478;6.158;2023-03-14T03:43:08;8.60;99.90
51500;DHT22;39101;53.478;6.158;2023-03-14T03:45:34;8.50;99.90
51500;DHT22;39101;53.478;6.158;2023-03-14T03:48:00;8.60;99.90
51500;DHT22;39101;53.478;6.158;2023-03-14T03:50:25;8.60;99.90
51500;DHT22;39101;53.478;6.158;2023-03-14T03:52:51;8.60;99.90
51500;DHT22;39101;53.478;6.158;2023-03-14T03:55:16;8.60;99.90
51500;DHT22;39101;53.478;6.158;2023-03-14T03:57:42;8.60;99.90
51500;DHT22;39101;53.478;6.158;2023-03-14T04:00:09;8.60;99.90
51500;DHT22;39101;53.478;6.158;2023-03-14T04:02:37;8.60;99.90
51500;DHT22;39101;53.478;6.158;2023-03-14T04:05:03;8.60;99.90
51500;DHT22;39101;53.478;6.158;2023-03-14T04:07:31;8.60;99.90
51500;DHT22;39101;53.478;6.158;2023-03-14T04:09:57;8.70;99.90
51500;DHT22;39101;53.478;6.158;2023-03-14T04:12:23;8.70;99.90
51500;DHT22;39101;53.478;6.158;2023-03-14T04:14:48;8.60;99.90
51500;DHT22;39101;53.478;6.158;2023-03-14T04:17:14;8.60;99.90
51500;DHT22;39101;53.478;6.158;2023-03-14T04:19:40;8.70;99.90
51500;DHT22;39101;53.478;6.158;2023-03-14T04:22:06;8.60;99.90
51500;DHT22;39101;53.478;6.158;2023-03-14T04:24:31;8.70;99.90
51500;DHT22;39101;53.478;6.158;2023-03-14T04:26:57;8.80;99.90
51500;DHT22;39101;53.478;6.158;2023-03-14T04:29:23;8.60;99.90
51500;DHT22;39101;53.478;6.158;2023-03-14T04:31:48;8.70;99.90
51500;DHT22;39101;53.478;6.158;2023-03-14T04:34:14;8.70;99.90
51500;DHT22;39101;53.478;6.158;2023-03-14T04:36:40;8.60;99.90
51500;DHT22;39101;53.478;6.158;2023-03-14T04:39:05;8.70;99.90
51500;DHT22;39101;53.478;6.158;2023-03-14T04:41:31;8.60;99.90
51500;DHT22;39101;53.478;6.158;2023-03-14T04:43:57;8.60;99.90
51500;DHT22;39101;53.478;6.158;2023-03-14T04:46:23;8.60;99.90
51500;DHT22;39101;53.478;6.158;2023-03-14T04:48:48;8.50;99.90
51500;DHT22;39101;53.478;6.158;2023-03-14T04:51:14;8.60;99.90
51500;DHT22;39101;53.478;6.158;2023-03-14T04:53:40;8.50;99.90
51500;DHT22;39101;53.478;6.158;2023-03-14T04:56:07;8.50;99.90
51500;DHT22;39101;53.478;6.158;2023-03-14T04:58:32;8.50;99.90
51500;DHT22;39101;53.478;6.158;2023-03-14T05:01:03;8.40;99.90
51500;DHT22;39101;53.478;6.158;2023-03-14T05:03:29;8.30;99.90
51500;DHT22;39101;53.478;6.158;2023-03-14T05:05:54;8.40;99.90
51500;DHT22;39101;53.478;6.158;2023-03-14T05:08:20;8.30;99.90
51500;DHT22;39101;53.478;6.158;2023-03-14T05:10:54;8.40;99.90
51500;DHT22;39101;53.478;6.158;2023-03-14T05:13:21;8.40;99.90
51500;DHT22;39101;53.478;6.158;2023-03-14T05:15:46;8.50;99.90
51500;DHT22;39101;53.478;6.158;2023-03-14T05:18:12;8.40;99.90
51500;DHT22;39101;53.478;6.158;2023-03-14T05:20:38;8.40;99.90
51500;DHT22;39101;53.478;6.158;2023-03-14T05:23:04;8.30;99.90
51500;DHT22;39101;53.478;6.158;2023-03-14T05:25:29;8.30;99.90
51500;DHT22;39101;53.478;6.158;2023-03-14T05:27:55;8.40;99.90
51500;DHT22;39101;53.478;6.158;2023-03-14T05:30:21;8.40;99.90
51500;DHT22;39101;53.478;6.158;2023-03-14T05:32:47;8.30;99.90
51500;DHT22;39101;53.478;6.158;2023-03-14T05:35:13;7.80;99.90
51500;DHT22;39101;53.478;6.158;2023-03-14T05:37:39;7.50;99.90
51500;DHT22;39101;53.478;6.158;2023-03-14T05:40:05;7.20;99.90
51500;DHT22;39101;53.478;6.158;2023-03-14T05:42:32;6.90;99.90
51500;DHT22;39101;53.478;6.158;2023-03-14T05:44:58;6.80;99.90
51500;DHT22;39101;53.478;6.158;2023-03-14T05:47:24;6.70;99.90
51500;DHT22;39101;53.478;6.158;2023-03-14T05:49:50;6.60;99.90
51500;DHT22;39101;53.478;6.158;2023-03-14T05:52:16;6.40;99.90
51500;DHT22;39101;53.478;6.158;2023-03-14T05:54:42;6.30;99.90
51500;DHT22;39101;53.478;6.158;2023-03-14T05:57:08;6.10;99.90
51500;DHT22;39101;53.478;6.158;2023-03-14T05:59:33;5.90;99.90
51500;DHT22;39101;53.478;6.158;2023-03-14T06:01:59;5.90;99.90
51500;DHT22;39101;53.478;6.158;2023-03-14T06:04:25;5.80;99.90
51500;DHT22;39101;53.478;6.158;2023-03-14T06:06:50;5.70;99.90
51500;DHT22;39101;53.478;6.158;2023-03-14T06:09:16;5.50;99.90
51500;DHT22;39101;53.478;6.158;2023-03-14T06:11:44;5.20;99.90
51500;DHT22;39101;53.478;6.158;2023-03-14T06:14:11;5.00;99.90
51500;DHT22;39101;53.478;6.158;2023-03-14T06:16:37;4.90;99.90
51500;DHT22;39101;53.478;6.158;2023-03-14T06:19:02;4.70;99.90
51500;DHT22;39101;53.478;6.158;2023-03-14T06:21:28;4.60;99.90
51500;DHT22;39101;53.478;6.158;2023-03-14T06:23:54;4.80;99.90
51500;DHT22;39101;53.478;6.158;2023-03-14T06:26:19;4.30;99.90
51500;DHT22;39101;53.478;6.158;2023-03-14T06:28:45;4.30;99.90
51500;DHT22;39101;53.478;6.158;2023-03-14T06:31:11;4.20;99.90
51500;DHT22;39101;53.478;6.158;2023-03-14T06:33:36;3.90;99.90
51500;DHT22;39101;53.478;6.158;2023-03-14T06:36:02;4.10;99.90
51500;DHT22;39101;53.478;6.158;2023-03-14T06:38:28;3.70;99.90
51500;DHT22;39101;53.478;6.158;2023-03-14T06:40:53;3.90;99.90
51500;DHT22;39101;53.478;6.158;2023-03-14T06:43:19;3.80;99.90
51500;DHT22;39101;53.478;6.158;2023-03-14T06:45:45;3.90;99.90
51500;DHT22;39101;53.478;6.158;2023-03-14T06:48:10;4.10;99.90
51500;DHT22;39101;53.478;6.158;2023-03-14T06:50:36;4.20;99.90
51500;DHT22;39101;53.478;6.158;2023-03-14T06:53:02;3.90;99.90
51500;DHT22;39101;53.478;6.158;2023-03-14T06:55:27;3.90;99.90
51500;DHT22;39101;53.478;6.158;2023-03-14T06:57:53;3.90;99.90
51500;DHT22;39101;53.478;6.158;2023-03-14T07:00:19;3.90;99.90
51500;DHT22;39101;53.478;6.158;2023-03-14T07:02:44;3.90;99.90
51500;DHT22;39101;53.478;6.158;2023-03-14T07:05:10;3.90;99.90
51500;DHT22;39101;53.478;6.158;2023-03-14T07:07:36;3.80;99.90
51500;DHT22;39101;53.478;6.158;2023-03-14T07:10:02;4.00;99.90
51500;DHT22;39101;53.478;6.158;2023-03-14T07:12:27;3.90;99.90
51500;DHT22;39101;53.478;6.158;2023-03-14T07:14:53;3.90;99.90
51500;DHT22;39101;53.478;6.158;2023-03-14T07:17:19;4.20;99.90
51500;DHT22;39101;53.478;6.158;2023-03-14T07:19:44;4.00;99.90
51500;DHT22;39101;53.478;6.158;2023-03-14T07:22:10;3.90;99.90
51500;DHT22;39101;53.478;6.158;2023-03-14T07:24:36;3.90;99.90
51500;DHT22;39101;53.478;6.158;2023-03-14T07:27:01;4.10;99.90
51500;DHT22;39101;53.478;6.158;2023-03-14T07:29:27;4.10;99.90
51500;DHT22;39101;53.478;6.158;2023-03-14T07:31:53;4.00;99.90
51500;DHT22;39101;53.478;6.158;2023-03-14T07:34:18;4.00;99.90
51500;DHT22;39101;53.478;6.158;2023-03-14T07:36:44;4.00;99.90
51500;DHT22;39101;53.478;6.158;2023-03-14T07:39:10;4.10;99.90
51500;DHT22;39101;53.478;6.158;2023-03-14T07:41:36;4.20;99.90
51500;DHT22;39101;53.478;6.158;2023-03-14T07:44:02;4.00;99.90
51500;DHT22;39101;53.478;6.158;2023-03-14T07:46:27;4.10;99.90
51500;DHT22;39101;53.478;6.158;2023-03-14T07:48:54;4.00;99.90
51500;DHT22;39101;53.478;6.158;2023-03-14T07:51:19;4.30;99.90
51500;DHT22;39101;53.478;6.158;2023-03-14T07:53:45;4.20;99.90
51500;DHT22;39101;53.478;6.158;2023-03-14T07:56:11;4.30;99.90
51500;DHT22;39101;53.478;6.158;2023-03-14T07:58:37;4.10;99.90
51500;DHT22;39101;53.478;6.158;2023-03-14T08:01:02;4.20;99.90
51500;DHT22;39101;53.478;6.158;2023-03-14T08:03:28;4.30;99.90
51500;DHT22;39101;53.478;6.158;2023-03-14T08:05:54;4.20;99.90
51500;DHT22;39101;53.478;6.158;2023-03-14T08:08:20;4.30;99.90
51500;DHT22;39101;53.478;6.158;2023-03-14T08:10:46;4.20;99.90
51500;DHT22;39101;53.478;6.158;2023-03-14T08:13:12;4.60;99.90
51500;DHT22;39101;53.478;6.158;2023-03-14T08:15:38;4.50;99.90
51500;DHT22;39101;53.478;6.158;2023-03-14T08:18:04;4.50;99.90
51500;DHT22;39101;53.478;6.158;2023-03-14T08:20:30;4.50;99.90
51500;DHT22;39101;53.478;6.158;2023-03-14T08:23:00;4.60;99.90
51500;DHT22;39101;53.478;6.158;2023-03-14T08:25:27;4.50;99.90
51500;DHT22;39101;53.478;6.158;2023-03-14T08:27:53;4.70;99.90
51500;DHT22;39101;53.478;6.158;2023-03-14T08:30:20;4.80;99.90
51500;DHT22;39101;53.478;6.158;2023-03-14T08:32:46;4.80;99.90
51500;DHT22;39101;53.478;6.158;2023-03-14T08:35:13;4.70;99.90
51500;DHT22;39101;53.478;6.158;2023-03-14T08:37:39;4.80;99.90
51500;DHT22;39101;53.478;6.158;2023-03-14T08:40:06;4.90;99.90
51500;DHT22;39101;53.478;6.158;2023-03-14T08:42:39;4.90;99.90
51500;DHT22;39101;53.478;6.158;2023-03-14T08:45:06;4.60;99.90
51500;DHT22;39101;53.478;6.158;2023-03-14T08:47:32;4.70;99.90
51500;DHT22;39101;53.478;6.158;2023-03-14T08:49:58;4.70;99.90
51500;DHT22;39101;53.478;6.158;2023-03-14T08:52:24;4.70;99.90
51500;DHT22;39101;53.478;6.158;2023-03-14T08:54:50;4.60;99.90
51500;DHT22;39101;53.478;6.158;2023-03-14T08:57:15;4.60;99.90
51500;DHT22;39101;53.478;6.158;2023-03-14T08:59:41;4.60;99.90
51500;DHT22;39101;53.478;6.158;2023-03-14T09:02:10;4.70;99.90
51500;DHT22;39101;53.478;6.158;2023-03-14T09:04:36;4.70;99.90
51500;DHT22;39101;53.478;6.158;2023-03-14T09:07:02;4.70;99.90
51500;DHT22;39101;53.478;6.158;2023-03-14T09:09:28;4.70;99.90
51500;DHT22;39101;53.478;6.158;2023-03-14T09:11:55;4.60;99.90
51500;DHT22;39101;53.478;6.158;2023-03-14T09:14:21;4.80;99.90
51500;DHT22;39101;53.478;6.158;2023-03-14T09:16:47;4.80;99.90
51500;DHT22;39101;53.478;6.158;2023-03-14T09:19:13;4.70;99.90
51500;DHT22;39101;53.478;6.158;2023-03-14T09:21:39;4.70;99.90
51500;DHT22;39101;53.478;6.158;2023-03-14T09:24:05;4.60;99.90
51500;DHT22;39101;53.478;6.158;2023-03-14T09:26:30;4.70;99.90
51500;DHT22;39101;53.478;6.158;2023-03-14T09:28:56;4.50;99.90
51500;DHT22;39101;53.478;6.158;2023-03-14T09:31:22;4.50;99.90
51500;DHT22;39101;53.478;6.158;2023-03-14T09:33:48;4.80;99.90
51500;DHT22;39101;53.478;6.158;2023-03-14T09:36:14;4.90;99.90
51500;DHT22;39101;53.478;6.158;2023-03-14T09:38:39;4.90;99.90
51500;DHT22;39101;53.478;6.158;2023-03-14T09:41:27;5.00;99.90
51500;DHT22;39101;53.478;6.158;2023-03-14T09:44:04;5.10;99.90
51500;DHT22;39101;53.478;6.158;2023-03-14T09:46:32;5.30;99.90
51500;DHT22;39101;53.478;6.158;2023-03-14T09:49:00;5.50;99.90
51500;DHT22;39101;53.478;6.158;2023-03-14T09:51:27;5.80;99.90
51500;DHT22;39101;53.478;6.158;2023-03-14T09:53:53;5.80;99.90
51500;DHT22;39101;53.478;6.158;2023-03-14T09:58:52;5.90;99.90
51500;DHT22;39101;53.478;6.158;2023-03-14T10:01:25;5.90;99.90
51500;DHT22;39101;53.478;6.158;2023-03-14T10:03:54;5.90;99.90
51500;DHT22;39101;53.478;6.158;2023-03-14T10:06:24;5.90;99.90
51500;DHT22;39101;53.478;6.158;2023-03-14T10:08:51;5.80;99.90
51500;DHT22;39101;53.478;6.158;2023-03-14T10:11:19;5.80;99.90
51500;DHT22;39101;53.478;6.158;2023-03-14T10:16:14;5.60;99.90
51500;DHT22;39101;53.478;6.158;2023-03-14T10:18:44;5.60;99.90
51500;DHT22;39101;53.478;6.158;2023-03-14T10:21:28;5.80;99.90
51500;DHT22;39101;53.478;6.158;2023-03-14T10:23:54;5.80;99.90
51500;DHT22;39101;53.478;6.158;2023-03-14T10:26:29;5.80;99.90
51500;DHT22;39101;53.478;6.158;2023-03-14T10:29:16;5.80;99.90
51500;DHT22;39101;53.478;6.158;2023-03-14T10:31:48;6.00;99.90
51500;DHT22;39101;53.478;6.158;2023-03-14T10:34:32;6.20;99.90
51500;DHT22;39101;53.478;6.158;2023-03-14T10:37:05;6.30;99.90
51500;DHT22;39101;53.478;6.158;2023-03-14T10:42:21;6.10;99.90
51500;DHT22;39101;53.478;6.158;2023-03-14T10:44:51;5.90;99.90
51500;DHT22;39101;53.478;6.158;2023-03-14T10:47:23;5.90;99.90
51500;DHT22;39101;53.478;6.158;2023-03-14T10:49:49;5.90;99.90
51500;DHT22;39101;53.478;6.158;2023-03-14T10:54:41;6.00;99.90
51500;DHT22;39101;53.478;6.158;2023-03-14T10:57:11;6.10;99.90
51500;DHT22;39101;53.478;6.158;2023-03-14T10:59:39;6.10;99.90
51500;DHT22;39101;53.478;6.158;2023-03-14T11:02:34;6.10;99.90
51500;DHT22;39101;53.478;6.158;2023-03-14T11:05:48;6.20;99.90
51500;DHT22;39101;53.478;6.158;2023-03-14T11:08:37;6.30;99.90
51500;DHT22;39101;53.478;6.158;2023-03-14T11:11:23;6.60;99.90
51500;DHT22;39101;53.478;6.158;2023-03-14T11:14:27;6.60;99.90
51500;DHT22;39101;53.478;6.158;2023-03-14T11:19:50;7.00;99.90
51500;DHT22;39101;53.478;6.158;2023-03-14T11:22:28;7.10;99.90
51500;DHT22;39101;53.478;6.158;2023-03-14T11:25:06;7.10;99.90
51500;DHT22;39101;53.478;6.158;2023-03-14T11:27:43;7.00;99.90
51500;DHT22;39101;53.478;6.158;2023-03-14T11:30:32;6.90;99.90
51500;DHT22;39101;53.478;6.158;2023-03-14T11:33:07;7.00;99.90
51500;DHT22;39101;53.478;6.158;2023-03-14T11:35:53;7.00;99.90
51500;DHT22;39101;53.478;6.158;2023-03-14T11:38:40;7.00;99.90
51500;DHT22;39101;53.478;6.158;2023-03-14T11:41:23;6.90;99.90
51500;DHT22;39101;53.478;6.158;2023-03-14T11:43:55;6.90;99.90
51500;DHT22;39101;53.478;6.158;2023-03-14T11:46:29;6.70;99.90
51500;DHT22;39101;53.478;6.158;2023-03-14T11:51:35;6.80;99.90
51500;DHT22;39101;53.478;6.158;2023-03-14T11:56:58;6.80;99.90
51500;DHT22;39101;53.478;6.158;2023-03-14T12:02:01;6.60;99.90
51500;DHT22;39101;53.478;6.158;2023-03-14T12:06:56;6.60;99.90
51500;DHT22;39101;53.478;6.158;2023-03-14T12:09:23;6.60;99.90
51500;DHT22;39101;53.478;6.158;2023-03-14T12:11:58;6.60;99.90
51500;DHT22;39101;53.478;6.158;2023-03-14T12:17:03;6.40;99.90
51500;DHT22;39101;53.478;6.158;2023-03-14T12:19:32;6.40;99.90
51500;DHT22;39101;53.478;6.158;2023-03-14T12:24:33;6.40;99.90
51500;DHT22;39101;53.478;6.158;2023-03-14T12:27:02;6.40;99.90
51500;DHT22;39101;53.478;6.158;2023-03-14T12:29:28;6.50;99.90
51500;DHT22;39101;53.478;6.158;2023-03-14T12:34:32;6.40;99.90
51500;DHT22;39101;53.478;6.158;2023-03-14T12:48:04;6.80;99.90
51500;DHT22;39101;53.478;6.158;2023-03-14T12:56:01;7.10;99.90
51500;DHT22;39101;53.478;6.158;2023-03-14T13:01:33;7.20;99.90
51500;DHT22;39101;53.478;6.158;2023-03-14T13:04:07;7.30;99.90
51500;DHT22;39101;53.478;6.158;2023-03-14T13:06:55;7.20;99.90
51500;DHT22;39101;53.478;6.158;2023-03-14T13:12:13;7.50;99.90
51500;DHT22;39101;53.478;6.158;2023-03-14T13:14:45;7.70;99.90
51500;DHT22;39101;53.478;6.158;2023-03-14T13:17:12;7.60;99.90
51500;DHT22;39101;53.478;6.158;2023-03-14T13:19:38;7.70;99.90
51500;DHT22;39101;53.478;6.158;2023-03-14T13:22:23;7.50;99.90
51500;DHT22;39101;53.478;6.158;2023-03-14T13:24:50;7.30;99.90
51500;DHT22;39101;53.478;6.158;2023-03-14T13:27:20;7.20;99.90
51500;DHT22;39101;53.478;6.158;2023-03-14T13:29:48;7.20;99.90
51500;DHT22;39101;53.478;6.158;2023-03-14T13:32:21;7.20;99.90
51500;DHT22;39101;53.478;6.158;2023-03-14T13:34:47;7.20;99.90
51500;DHT22;39101;53.478;6.158;2023-03-14T13:37:22;7.30;99.90
51500;DHT22;39101;53.478;6.158;2023-03-14T13:39:56;7.30;99.90
51500;DHT22;39101;53.478;6.158;2023-03-14T13:42:28;7.20;99.90
51500;DHT22;39101;53.478;6.158;2023-03-14T13:44:55;7.10;99.90
51500;DHT22;39101;53.478;6.158;2023-03-14T13:47:23;6.90;99.90
51500;DHT22;39101;53.478;6.158;2023-03-14T13:49:50;6.60;99.90
51500;DHT22;39101;53.478;6.158;2023-03-14T13:52:31;6.40;99.90
51500;DHT22;39101;53.478;6.158;2023-03-14T13:54:58;6.20;99.90
51500;DHT22;39101;53.478;6.158;2023-03-14T13:57:24;6.00;99.90
51500;DHT22;39101;53.478;6.158;2023-03-14T14:00:03;6.00;99.90
51500;DHT22;39101;53.478;6.158;2023-03-14T14:02:33;5.60;99.90
51500;DHT22;39101;53.478;6.158;2023-03-14T14:05:01;5.60;99.90
51500;DHT22;39101;53.478;6.158;2023-03-14T14:07:27;5.60;99.90
51500;DHT22;39101;53.478;6.158;2023-03-14T14:09:54;5.80;99.90
51500;DHT22;39101;53.478;6.158;2023-03-14T14:12:35;6.10;99.90
51500;DHT22;39101;53.478;6.158;2023-03-14T14:15:12;6.30;99.90
51500;DHT22;39101;53.478;6.158;2023-03-14T14:17:47;6.40;99.90
51500;DHT22;39101;53.478;6.158;2023-03-14T14:22:45;6.60;99.90
51500;DHT22;39101;53.478;6.158;2023-03-14T14:25:15;6.80;99.90
51500;DHT22;39101;53.478;6.158;2023-03-14T14:27:43;6.80;99.90
51500;DHT22;39101;53.478;6.158;2023-03-14T14:32:45;6.70;99.90
51500;DHT22;39101;53.478;6.158;2023-03-14T14:35:26;7.00;99.90
51500;DHT22;39101;53.478;6.158;2023-03-14T14:37:56;7.00;99.90
51500;DHT22;39101;53.478;6.158;2023-03-14T14:40:23;7.00;99.90
51500;DHT22;39101;53.478;6.158;2023-03-14T14:42:49;7.00;99.90
51500;DHT22;39101;53.478;6.158;2023-03-14T14:45:21;7.10;99.90
51500;DHT22;39101;53.478;6.158;2023-03-14T14:47:54;7.30;99.90
51500;DHT22;39101;53.478;6.158;2023-03-14T14:52:59;7.20;99.90
51500;DHT22;39101;53.478;6.158;2023-03-14T14:55:33;7.20;99.90
51500;DHT22;39101;53.478;6.158;2023-03-14T14:58:33;7.30;99.90
51500;DHT22;39101;53.478;6.158;2023-03-14T15:01:07;7.00;99.90
51500;DHT22;39101;53.478;6.158;2023-03-14T15:03:36;6.90;99.90
51500;DHT22;39101;53.478;6.158;2023-03-14T15:06:02;7.00;99.90
51500;DHT22;39101;53.478;6.158;2023-03-14T15:08:28;7.00;99.90
51500;DHT22;39101;53.478;6.158;2023-03-14T15:10:55;6.90;99.90
51500;DHT22;39101;53.478;6.158;2023-03-14T15:13:21;6.90;99.90
51500;DHT22;39101;53.478;6.158;2023-03-14T15:15:47;6.80;99.90
51500;DHT22;39101;53.478;6.158;2023-03-14T15:18:16;6.80;99.90
51500;DHT22;39101;53.478;6.158;2023-03-14T15:20:43;6.70;99.90
51500;DHT22;39101;53.478;6.158;2023-03-14T15:23:13;6.70;99.90
51500;DHT22;39101;53.478;6.158;2023-03-14T15:25:40;6.50;99.90
51500;DHT22;39101;53.478;6.158;2023-03-14T15:28:18;6.50;99.90
51500;DHT22;39101;53.478;6.158;2023-03-14T15:30:49;6.40;99.90
51500;DHT22;39101;53.478;6.158;2023-03-14T15:33:15;6.00;99.90
51500;DHT22;39101;53.478;6.158;2023-03-14T15:35:41;5.90;99.90
51500;DHT22;39101;53.478;6.158;2023-03-14T15:38:12;6.10;99.90
51500;DHT22;39101;53.478;6.158;2023-03-14T15:40:38;6.20;99.90
51500;DHT22;39101;53.478;6.158;2023-03-14T15:43:04;6.50;99.90
51500;DHT22;39101;53.478;6.158;2023-03-14T15:45:30;6.70;99.90
51500;DHT22;39101;53.478;6.158;2023-03-14T15:47:56;6.90;99.90
51500;DHT22;39101;53.478;6.158;2023-03-14T15:50:22;6.90;99.90
51500;DHT22;39101;53.478;6.158;2023-03-14T15:52:48;7.00;99.90
51500;DHT22;39101;53.478;6.158;2023-03-14T15:55:14;7.10;99.90
51500;DHT22;39101;53.478;6.158;2023-03-14T15:57:42;7.30;99.90
51500;DHT22;39101;53.478;6.158;2023-03-14T16:00:14;7.10;99.90
51500;DHT22;39101;53.478;6.158;2023-03-14T16:02:41;6.90;99.90
51500;DHT22;39101;53.478;6.158;2023-03-14T16:05:11;7.10;99.90
51500;DHT22;39101;53.478;6.158;2023-03-14T16:07:37;7.20;99.90
51500;DHT22;39101;53.478;6.158;2023-03-14T16:10:03;6.80;99.90
51500;DHT22;39101;53.478;6.158;2023-03-14T16:12:30;6.40;99.90
51500;DHT22;39101;53.478;6.158;2023-03-14T16:14:56;6.60;99.90
51500;DHT22;39101;53.478;6.158;2023-03-14T16:17:22;6.70;99.90
51500;DHT22;39101;53.478;6.158;2023-03-14T16:19:47;6.60;99.90
51500;DHT22;39101;53.478;6.158;2023-03-14T16:22:13;6.70;99.90
51500;DHT22;39101;53.478;6.158;2023-03-14T16:24:39;6.50;99.90
51500;DHT22;39101;53.478;6.158;2023-03-14T16:27:04;6.20;99.90
51500;DHT22;39101;53.478;6.158;2023-03-14T16:29:30;6.00;99.90
51500;DHT22;39101;53.478;6.158;2023-03-14T16:31:56;5.90;99.90
51500;DHT22;39101;53.478;6.158;2023-03-14T16:34:22;5.80;99.90
51500;DHT22;39101;53.478;6.158;2023-03-14T16:36:48;5.80;99.90
51500;DHT22;39101;53.478;6.158;2023-03-14T16:39:17;5.60;99.90
51500;DHT22;39101;53.478;6.158;2023-03-14T16:41:43;5.50;99.90
51500;DHT22;39101;53.478;6.158;2023-03-14T16:44:08;5.20;99.90
51500;DHT22;39101;53.478;6.158;2023-03-14T16:46:34;4.50;99.90
51500;DHT22;39101;53.478;6.158;2023-03-14T16:49:01;4.40;99.90
51500;DHT22;39101;53.478;6.158;2023-03-14T16:51:27;4.00;99.90
51500;DHT22;39101;53.478;6.158;2023-03-14T16:53:52;4.10;99.90
51500;DHT22;39101;53.478;6.158;2023-03-14T16:56:18;4.00;99.90
51500;DHT22;39101;53.478;6.158;2023-03-14T16:58:44;3.20;99.90
51500;DHT22;39101;53.478;6.158;2023-03-14T17:01:12;3.10;99.90
51500;DHT22;39101;53.478;6.158;2023-03-14T17:03:41;3.20;99.90
51500;DHT22;39101;53.478;6.158;2023-03-14T17:06:07;3.30;99.90
51500;DHT22;39101;53.478;6.158;2023-03-14T17:08:34;3.10;99.90